createdAt,value
2023-10-20T00:00:26.311Z,96230.09
2023-10-20T00:05:29.300Z,96235.16
2023-10-20T00:10:37.381Z,96262.63
2023-10-20T00:15:40.804Z,96241.00
2023-10-20T00:20:43.829Z,96156.38
2023-10-20T00:25:46.756Z,96203.16
2023-10-20T00:30:49.682Z,96193.59
2023-10-20T00:35:52.650Z,96213.53
2023-10-20T00:40:55.673Z,96110.47
2023-10-20T00:46:00.676Z,96168.09
2023-10-20T00:51:07.613Z,96105.59
2023-10-20T00:56:10.651Z,96115.97
2023-10-20T01:01:14.511Z,96108.28
2023-10-20T01:06:17.546Z,96128.19
2023-10-20T01:11:20.846Z,96066.94
2023-10-20T01:16:24.689Z,96065.31
2023-10-20T01:21:27.757Z,95991.69
2023-10-20T01:26:30.733Z,96064.31
2023-10-20T01:31:33.988Z,95969.19
2023-10-20T01:36:38.489Z,96015.97
2023-10-20T01:41:42.027Z,95903.91
2023-10-20T01:46:50.696Z,95939.88
2023-10-20T01:51:53.893Z,95927.34
2023-10-20T01:56:56.834Z,95935.84
2023-10-20T02:01:59.903Z,95981.25
2023-10-20T02:07:03.175Z,95898.56
2023-10-20T02:12:06.325Z,95902.88
2023-10-20T02:17:09.805Z,95912.59
2023-10-20T02:22:13.554Z,95837.84
2023-10-20T02:27:16.487Z,95765.81
2023-10-20T02:32:19.378Z,95709.06
2023-10-20T02:37:22.703Z,95730.50
2023-10-20T02:42:25.756Z,95849.91
2023-10-20T02:47:29.909Z,95793.53
2023-10-20T02:52:32.963Z,95726.50
2023-10-20T02:57:37.644Z,95784.06
2023-10-20T03:02:40.764Z,95726.34
2023-10-20T03:07:44.035Z,95791.09
2023-10-20T03:12:46.990Z,95680.75
2023-10-20T03:17:50.031Z,95716.44
2023-10-20T03:22:53.972Z,95661.66
2023-10-20T03:27:56.908Z,95707.69
2023-10-20T03:32:59.859Z,95677.69
2023-10-20T03:38:04.612Z,95751.03
2023-10-20T03:43:09.843Z,95694.78
2023-10-20T03:48:12.940Z,95717.75
2023-10-20T03:53:22.412Z,95555.00
2023-10-20T03:58:26.675Z,95542.78
2023-10-20T04:03:33.620Z,95535.06
2023-10-20T04:08:36.645Z,95495.34
2023-10-20T04:13:40.637Z,95622.59
2023-10-20T04:18:45.145Z,95473.28
2023-10-20T04:23:48.585Z,95457.78
2023-10-20T04:29:09.346Z,95460.50
2023-10-20T04:34:31.218Z,95415.69
2023-10-20T04:39:52.977Z,95373.53
2023-10-20T04:45:17.729Z,95435.38
2023-10-20T04:50:20.701Z,95424.97
2023-10-20T04:55:29.299Z,95392.66
2023-10-20T05:00:36.218Z,95440.16
2023-10-20T05:05:45.790Z,95440.53
2023-10-20T05:10:50.704Z,95496.97
2023-10-20T05:15:53.670Z,95360.28
2023-10-20T05:20:56.741Z,95396.88
2023-10-20T05:25:59.611Z,95370.66
2023-10-20T05:31:02.675Z,95471.13
2023-10-20T05:36:06.371Z,95421.28
2023-10-20T05:41:09.294Z,95404.31
2023-10-20T05:46:19.284Z,95491.13
2023-10-20T05:51:23.137Z,95429.00
2023-10-20T05:56:26.018Z,95367.53
2023-10-20T06:01:29.001Z,95384.06
2023-10-20T06:06:32.949Z,95445.56
2023-10-20T06:11:39.385Z,95360.72
2023-10-20T06:16:43.586Z,95396.44
2023-10-20T06:21:47.455Z,95443.44
2023-10-20T06:26:50.443Z,95482.78
2023-10-20T06:32:13.507Z,95523.66
2023-10-20T06:37:29.376Z,95598.78
2023-10-20T06:42:32.496Z,95592.72
2023-10-20T06:47:36.112Z,95624.03
2023-10-20T06:52:39.151Z,95654.41
2023-10-20T06:57:42.729Z,95644.56
2023-10-20T07:02:46.105Z,95635.75
2023-10-20T07:07:48.956Z,95664.66
2023-10-20T07:12:51.746Z,95685.84
2023-10-20T07:17:54.742Z,95638.47
2023-10-20T07:22:58.740Z,95673.03
2023-10-20T07:28:02.284Z,95746.41
2023-10-20T07:33:05.701Z,95757.38
2023-10-20T07:38:09.305Z,95785.41
2023-10-20T07:43:12.387Z,95729.44
2023-10-20T07:48:15.569Z,95751.94
2023-10-20T07:53:19.733Z,95786.13
2023-10-20T07:58:23.133Z,95758.06
2023-10-20T08:03:26.187Z,95736.28
2023-10-20T08:08:29.571Z,95780.31
2023-10-20T08:13:35.128Z,95788.69
2023-10-20T08:18:38.128Z,95828.25
2023-10-20T08:23:41.180Z,95826.72
2023-10-20T08:28:44.260Z,95821.41
2023-10-20T08:33:47.115Z,95798.94
2023-10-20T08:38:52.530Z,95811.59
2023-10-20T08:43:57.491Z,95830.38
2023-10-20T08:49:04.036Z,95790.31
2023-10-20T08:54:10.405Z,95806.84
2023-10-20T08:59:13.527Z,95831.88
2023-10-20T09:04:24.505Z,95844.94
2023-10-20T09:09:27.342Z,95847.03
2023-10-20T09:14:30.347Z,95846.69
2023-10-20T09:19:33.708Z,95873.59
2023-10-20T09:24:36.785Z,95847.94
2023-10-20T09:29:40.702Z,95871.72
2023-10-20T09:34:43.793Z,95876.28
2023-10-20T09:39:48.232Z,95845.38
2023-10-20T09:45:12.760Z,95899.81
2023-10-20T09:50:19.518Z,95953.75
2023-10-20T09:55:22.970Z,95904.16
2023-10-20T10:00:35.183Z,95934.53
2023-10-20T10:05:38.801Z,95882.81
2023-10-20T10:10:41.773Z,95898.47
2023-10-20T10:15:48.504Z,95918.25
2023-10-20T10:20:51.982Z,95909.09
2023-10-20T10:25:55.097Z,95952.78
2023-10-20T10:30:58.061Z,95969.03
2023-10-20T10:36:06.527Z,95929.56
2023-10-20T10:41:09.549Z,95962.06
2023-10-20T10:46:13.138Z,95932.16
2023-10-20T10:51:16.445Z,95894.56
2023-10-20T10:56:19.531Z,95929.34
2023-10-20T11:01:22.587Z,95915.13
2023-10-20T11:06:26.000Z,95930.75
2023-10-20T11:11:29.669Z,95956.88
2023-10-20T11:16:37.731Z,95900.66
2023-10-20T11:21:53.228Z,95929.22
2023-10-20T11:27:08.170Z,95939.91
2023-10-20T11:32:14.564Z,95957.59
2023-10-20T11:37:17.489Z,95940.13
2023-10-20T11:42:20.341Z,95958.75
2023-10-20T11:47:23.416Z,95941.44
2023-10-20T11:52:26.728Z,95929.91
2023-10-20T11:57:29.652Z,95917.19
2023-10-20T12:02:32.665Z,95942.25
2023-10-20T12:07:36.294Z,95904.00
2023-10-20T12:12:40.108Z,95909.47
2023-10-20T12:17:43.287Z,95893.69
2023-10-20T12:22:46.285Z,95867.00
2023-10-20T12:27:49.212Z,95880.63
2023-10-20T12:32:52.173Z,95886.34
2023-10-20T12:37:55.813Z,95895.22
2023-10-20T12:42:58.629Z,95871.63
2023-10-20T12:48:02.743Z,95835.91
2023-10-20T12:53:06.079Z,95924.81
2023-10-20T12:58:09.758Z,95850.16
2023-10-20T13:03:13.244Z,95842.19
2023-10-20T13:08:16.310Z,95954.50
2023-10-20T13:13:19.439Z,96016.84
2023-10-20T13:18:22.609Z,95962.09
2023-10-20T13:23:25.661Z,95952.72
2023-10-20T13:28:28.600Z,95950.38
2023-10-20T13:33:33.493Z,95951.41
2023-10-20T13:38:38.966Z,95948.44
2023-10-20T13:43:46.008Z,95934.91
2023-10-20T13:48:49.126Z,95970.66
2023-10-20T13:53:53.136Z,95932.41
2023-10-20T13:58:56.044Z,95962.00
2023-10-20T14:03:59.066Z,95952.25
2023-10-20T14:09:02.256Z,95962.06
2023-10-20T14:14:06.612Z,95953.88
2023-10-20T14:19:09.476Z,95941.69
2023-10-20T14:24:13.000Z,95954.41
2023-10-20T14:29:17.381Z,95968.16
2023-10-20T14:34:20.737Z,95959.41
2023-10-20T14:39:23.832Z,95929.06
2023-10-20T14:44:26.795Z,95977.56
2023-10-20T14:49:30.657Z,95959.25
2023-10-20T14:54:33.582Z,95928.50
2023-10-20T14:59:36.897Z,95943.38
2023-10-20T15:04:40.287Z,95954.84
2023-10-20T15:09:43.596Z,96014.72
2023-10-20T15:14:46.540Z,95978.88
2023-10-20T15:19:49.833Z,96024.09
2023-10-20T15:24:54.157Z,96086.38
2023-10-20T15:29:57.022Z,96049.25
2023-10-20T15:35:00.124Z,96117.06
2023-10-20T15:40:17.610Z,96047.16
2023-10-20T15:45:22.115Z,96033.81
2023-10-20T15:50:25.096Z,96028.81
2023-10-20T15:55:28.069Z,95970.25
2023-10-20T16:00:33.260Z,96046.34
2023-10-20T16:05:36.185Z,96068.66
2023-10-20T16:10:39.143Z,96086.56
2023-10-20T16:15:42.101Z,96047.78
2023-10-20T16:20:47.101Z,96078.63
2023-10-20T16:25:50.132Z,96091.59
2023-10-20T16:30:54.654Z,96047.19
2023-10-20T16:35:58.196Z,96074.44
2023-10-20T16:41:01.647Z,96091.22
2023-10-20T16:46:05.749Z,96044.72
2023-10-20T16:51:08.866Z,96070.09
2023-10-20T16:56:11.782Z,96059.56
2023-10-20T17:01:16.374Z,96059.13
2023-10-20T17:06:21.319Z,96074.63
2023-10-20T17:11:25.122Z,96055.31
2023-10-20T17:16:28.092Z,96103.53
2023-10-20T17:21:32.412Z,96057.97
2023-10-20T17:26:35.860Z,96096.81
2023-10-20T17:31:39.628Z,96096.56
2023-10-20T17:36:42.938Z,96100.81
2023-10-20T17:41:46.792Z,96049.03
2023-10-20T17:46:51.269Z,96078.06
2023-10-20T17:51:54.309Z,96100.94
2023-10-20T17:56:57.262Z,96095.84
2023-10-20T18:02:00.269Z,96070.66
2023-10-20T18:07:03.283Z,96064.53
2023-10-20T18:12:06.991Z,96039.25
2023-10-20T18:17:11.846Z,96070.34
2023-10-20T18:22:16.536Z,96070.19
2023-10-20T18:27:19.378Z,96125.91
2023-10-20T18:32:22.407Z,96080.56
2023-10-20T18:37:25.214Z,96087.41
2023-10-20T18:42:28.042Z,96088.41
2023-10-20T18:47:31.035Z,96072.16
2023-10-20T18:52:33.902Z,96089.88
2023-10-20T18:57:36.750Z,96045.84
2023-10-20T19:02:40.204Z,96072.88
2023-10-20T19:07:43.408Z,96036.69
2023-10-20T19:12:47.262Z,96054.94
2023-10-20T19:17:50.339Z,96061.66
2023-10-20T19:22:54.103Z,96086.06
2023-10-20T19:27:57.041Z,96067.31
2023-10-20T19:33:00.145Z,96109.94
2023-10-20T19:38:03.156Z,96129.75
2023-10-20T19:43:05.983Z,96123.66
2023-10-20T19:48:09.185Z,96086.06
2023-10-20T19:53:12.222Z,96129.97
2023-10-20T19:58:16.513Z,96091.25
2023-10-20T20:03:19.766Z,96062.72
2023-10-20T20:08:22.956Z,96107.88
2023-10-20T20:13:26.646Z,96072.69
2023-10-20T20:18:31.380Z,96136.13
2023-10-20T20:23:34.415Z,96092.78
2023-10-20T20:28:37.340Z,96100.66
2023-10-20T20:33:40.463Z,96151.84
2023-10-20T20:38:43.507Z,96085.81
2023-10-20T20:43:46.427Z,96114.09
2023-10-20T20:48:52.629Z,96103.00
2023-10-20T20:53:55.788Z,96114.22
2023-10-20T20:58:58.952Z,96151.13
2023-10-20T21:04:02.260Z,96075.59
2023-10-20T21:09:06.364Z,96138.97
2023-10-20T21:14:09.809Z,96073.81
2023-10-20T21:19:12.851Z,96175.06
2023-10-20T21:24:15.948Z,96118.41
2023-10-20T21:29:18.773Z,96195.56
2023-10-20T21:34:21.820Z,96203.94
2023-10-20T21:39:27.706Z,96138.41
2023-10-20T21:44:32.705Z,96182.78
2023-10-20T21:49:35.767Z,96165.25
2023-10-20T21:54:39.443Z,96189.81
2023-10-20T21:59:42.470Z,96190.94
2023-10-20T22:04:45.404Z,96233.28
2023-10-20T22:09:54.279Z,96256.63
2023-10-20T22:14:57.600Z,96230.59
2023-10-20T22:20:00.583Z,96267.50
2023-10-20T22:25:06.900Z,96306.81
2023-10-20T22:30:10.286Z,96353.19
2023-10-20T22:35:13.407Z,96374.50
2023-10-20T22:40:16.612Z,96331.41
2023-10-20T22:45:19.859Z,96281.50
2023-10-20T22:50:22.907Z,96389.97
2023-10-20T22:55:25.844Z,96386.44
2023-10-20T23:00:28.808Z,96328.34
2023-10-20T23:05:32.117Z,96364.91
2023-10-20T23:10:35.634Z,96391.53
2023-10-20T23:15:44.669Z,96491.50
2023-10-20T23:20:47.642Z,96475.97
2023-10-20T23:25:50.628Z,96516.34
2023-10-20T23:30:53.559Z,96511.41
2023-10-20T23:35:57.665Z,96561.47
2023-10-20T23:41:00.649Z,96529.31
2023-10-20T23:46:03.570Z,96524.44
2023-10-20T23:51:06.557Z,96556.41
2023-10-20T23:56:09.540Z,96581.47
